createdAt,value
2017-04-02T00:00:57.729Z,84.93
2017-04-02T00:02:03.928Z,96.45
2017-04-02T00:03:10.155Z,95.18
2017-04-02T00:04:16.455Z,120.17
2017-04-02T00:05:22.626Z,174.27
2017-04-02T00:06:28.876Z,213.52
2017-04-02T00:07:34.988Z,157.83
2017-04-02T00:08:41.189Z,138.93
2017-04-02T00:09:47.204Z,166.58
2017-04-02T00:10:53.205Z,125.82
2017-04-02T00:11:59.112Z,127.07
2017-04-02T00:13:05.100Z,120.75
2017-04-02T00:14:11.175Z,114.80
2017-04-02T00:15:17.361Z,112.40
2017-04-02T00:16:23.397Z,119.32
2017-04-02T00:17:30.260Z,109.57
2017-04-02T00:18:36.572Z,97.00
2017-04-02T00:19:42.589Z,109.83
2017-04-02T00:20:48.659Z,102.28
2017-04-02T00:21:54.727Z,113.80
2017-04-02T00:23:00.903Z,94.28
2017-04-02T00:24:06.977Z,88.53
2017-04-02T00:25:12.936Z,61.13
2017-04-02T00:26:19.028Z,77.37
2017-04-02T00:27:25.214Z,93.23
2017-04-02T00:28:31.327Z,94.30
2017-04-02T00:29:37.415Z,95.30
2017-04-02T00:30:43.369Z,120.88
2017-04-02T00:31:49.477Z,104.02
2017-04-02T00:32:56.322Z,93.30
2017-04-02T00:34:02.588Z,112.35
2017-04-02T00:35:08.684Z,129.93
2017-04-02T00:36:14.732Z,101.42
2017-04-02T00:37:20.708Z,110.53
2017-04-02T00:38:26.821Z,121.68
2017-04-02T00:39:32.993Z,140.87
2017-04-02T00:40:39.632Z,130.70
2017-04-02T00:41:45.712Z,127.30
2017-04-02T00:42:52.612Z,105.37
2017-04-02T00:43:58.659Z,82.08
2017-04-02T00:45:04.644Z,85.90
2017-04-02T00:46:10.533Z,117.45
2017-04-02T00:47:16.663Z,111.57
2017-04-02T00:48:22.857Z,105.57
2017-04-02T00:49:28.763Z,115.80
2017-04-02T00:50:35.027Z,127.88
2017-04-02T00:51:40.980Z,126.98
2017-04-02T00:52:47.086Z,136.70
2017-04-02T00:53:53.112Z,166.22
2017-04-02T00:54:59.191Z,159.92
2017-04-02T00:56:05.172Z,153.13
2017-04-02T00:57:11.157Z,140.42
2017-04-02T00:58:17.179Z,124.82
2017-04-02T00:59:23.230Z,124.78
2017-04-02T01:00:29.236Z,114.73
2017-04-02T01:01:35.304Z,103.57
2017-04-02T01:02:41.236Z,101.85
2017-04-02T01:03:47.236Z,93.97
2017-04-02T01:04:53.152Z,95.98
2017-04-02T01:05:59.181Z,89.47
2017-04-02T01:07:05.315Z,97.57
2017-04-02T01:08:11.410Z,97.72
2017-04-02T01:09:17.416Z,86.38
2017-04-02T01:10:24.155Z,96.87
2017-04-02T01:11:30.047Z,108.23
2017-04-02T01:12:36.008Z,85.67
2017-04-02T01:13:42.016Z,73.13
2017-04-02T01:14:48.113Z,64.27
2017-04-02T01:15:54.898Z,67.53
2017-04-02T01:17:00.883Z,79.42
2017-04-02T01:18:06.772Z,86.25
2017-04-02T01:19:12.791Z,90.88
2017-04-02T01:20:18.848Z,88.10
2017-04-02T01:21:24.798Z,117.53
2017-04-02T01:22:30.906Z,106.22
2017-04-02T01:23:37.076Z,81.75
2017-04-02T01:24:43.135Z,101.67
2017-04-02T01:25:49.306Z,84.38
2017-04-02T01:26:55.257Z,107.75
2017-04-02T01:28:01.556Z,109.52
2017-04-02T01:29:07.525Z,111.57
2017-04-02T01:30:13.598Z,139.65
2017-04-02T01:31:19.486Z,128.17
2017-04-02T01:32:25.569Z,132.52
2017-04-02T01:33:31.791Z,113.20
2017-04-02T01:34:37.889Z,117.97
2017-04-02T01:35:43.908Z,105.85
2017-04-02T01:36:49.855Z,101.78
2017-04-02T01:37:55.929Z,105.25
2017-04-02T01:39:01.948Z,92.63
2017-04-02T01:40:08.029Z,97.72
2017-04-02T01:41:14.068Z,103.17
2017-04-02T01:42:20.220Z,98.23
2017-04-02T01:43:26.250Z,91.65
2017-04-02T01:44:32.590Z,86.60
2017-04-02T01:45:38.522Z,98.55
2017-04-02T01:46:44.620Z,95.00
2017-04-02T01:47:50.772Z,89.47
2017-04-02T01:48:56.812Z,94.12
2017-04-02T01:50:03.404Z,113.00
2017-04-02T01:51:09.532Z,114.63
2017-04-02T01:52:15.560Z,122.38
2017-04-02T01:53:21.712Z,116.88
2017-04-02T01:54:27.817Z,117.58
2017-04-02T01:55:33.870Z,109.20
2017-04-02T01:56:39.845Z,115.23
2017-04-02T01:57:45.972Z,98.73
2017-04-02T01:58:52.077Z,91.68
2017-04-02T01:59:58.185Z,101.07
2017-04-02T02:01:04.258Z,89.32
2017-04-02T02:02:10.229Z,89.98
2017-04-02T02:03:16.310Z,87.77
2017-04-02T02:04:22.380Z,87.82
2017-04-02T02:05:28.344Z,87.50
2017-04-02T02:06:34.281Z,88.53
2017-04-02T02:07:40.330Z,77.93
2017-04-02T02:08:46.389Z,94.15
2017-04-02T02:09:52.394Z,98.78
2017-04-02T02:10:58.489Z,92.30
2017-04-02T02:12:04.652Z,97.20
2017-04-02T02:13:11.354Z,90.83
2017-04-02T02:14:17.168Z,87.60
2017-04-02T02:15:23.207Z,69.72
2017-04-02T02:16:29.336Z,63.95
2017-04-02T02:17:35.283Z,68.25
2017-04-02T02:18:41.255Z,63.72
2017-04-02T02:19:47.672Z,67.33
2017-04-02T02:20:53.651Z,65.63
2017-04-02T02:21:59.678Z,74.95
2017-04-02T02:23:05.763Z,77.83
2017-04-02T02:24:11.660Z,79.13
2017-04-02T02:25:17.802Z,78.70
2017-04-02T02:26:23.813Z,64.92
2017-04-02T02:27:29.952Z,75.15
2017-04-02T02:28:35.901Z,64.57
2017-04-02T02:29:42.032Z,67.02
2017-04-02T02:30:48.341Z,81.62
2017-04-02T02:31:54.394Z,83.10
2017-04-02T02:33:00.452Z,81.27
2017-04-02T02:34:06.529Z,88.48
2017-04-02T02:35:12.686Z,90.53
2017-04-02T02:36:18.892Z,92.70
2017-04-02T02:37:25.024Z,82.75
2017-04-02T02:38:31.046Z,92.73
2017-04-02T02:39:37.095Z,88.40
2017-04-02T02:40:43.044Z,89.02
2017-04-02T02:41:49.116Z,97.25
2017-04-02T02:42:55.195Z,79.48
2017-04-02T02:44:01.113Z,80.12
2017-04-02T02:45:07.142Z,84.08
2017-04-02T02:46:13.284Z,89.35
2017-04-02T02:47:19.330Z,76.38
2017-04-02T02:48:25.863Z,79.02
2017-04-02T02:49:31.873Z,73.30
2017-04-02T02:50:37.917Z,77.92
2017-04-02T02:51:44.076Z,82.95
2017-04-02T02:52:50.035Z,77.83
2017-04-02T02:53:56.152Z,78.87
2017-04-02T02:55:02.429Z,71.53
2017-04-02T02:56:08.465Z,77.87
2017-04-02T02:57:14.682Z,70.15
2017-04-02T02:58:20.675Z,69.60
2017-04-02T02:59:26.815Z,63.42
2017-04-02T03:00:33.003Z,69.30
2017-04-02T03:01:39.088Z,69.03
2017-04-02T03:02:45.151Z,71.05
2017-04-02T03:03:51.122Z,70.10
2017-04-02T03:04:57.319Z,75.92
2017-04-02T03:06:03.378Z,70.35
2017-04-02T03:07:09.529Z,71.03
2017-04-02T03:08:15.510Z,65.20
2017-04-02T03:09:21.607Z,63.65
2017-04-02T03:10:27.690Z,68.43
2017-04-02T03:11:33.717Z,68.60
2017-04-02T03:12:39.886Z,70.95
2017-04-02T03:13:45.887Z,64.15
2017-04-02T03:14:52.067Z,60.25
2017-04-02T03:15:58.205Z,69.97
2017-04-02T03:17:04.179Z,68.93
2017-04-02T03:18:10.272Z,69.58
2017-04-02T03:19:16.384Z,68.48
2017-04-02T03:20:22.487Z,58.85
2017-04-02T03:21:28.420Z,65.15
2017-04-02T03:22:34.335Z,58.65
2017-04-02T03:23:40.503Z,70.47
2017-04-02T03:24:46.553Z,70.10
2017-04-02T03:25:52.626Z,74.15
2017-04-02T03:26:58.752Z,77.98
2017-04-02T03:28:04.773Z,67.27
2017-04-02T03:29:10.981Z,58.63
2017-04-02T03:30:16.996Z,72.70
2017-04-02T03:31:23.963Z,64.73
2017-04-02T03:32:30.132Z,66.27
2017-04-02T03:33:36.027Z,75.10
2017-04-02T03:34:42.152Z,58.85
2017-04-02T03:35:48.215Z,69.17
2017-04-02T03:36:54.161Z,75.48
2017-04-02T03:38:00.281Z,76.50
2017-04-02T03:39:06.295Z,77.05
2017-04-02T03:40:12.643Z,78.70
2017-04-02T03:41:18.664Z,72.62
2017-04-02T03:42:24.761Z,80.32
2017-04-02T03:43:30.882Z,87.12
2017-04-02T03:44:36.921Z,92.27
2017-04-02T03:45:43.132Z,75.88
2017-04-02T03:46:49.018Z,81.65
2017-04-02T03:47:55.076Z,81.33
2017-04-02T03:49:01.000Z,79.35
2017-04-02T03:50:07.112Z,89.27
2017-04-02T03:51:13.410Z,88.75
2017-04-02T03:52:20.656Z,78.15
2017-04-02T03:53:26.596Z,79.53
2017-04-02T03:54:32.668Z,71.32
2017-04-02T03:55:38.773Z,86.62
2017-04-02T03:56:44.872Z,75.42
2017-04-02T03:57:50.842Z,81.17
2017-04-02T03:58:56.981Z,90.62
2017-04-02T04:00:03.099Z,75.50
2017-04-02T04:01:09.116Z,74.92
2017-04-02T04:02:15.242Z,75.50
2017-04-02T04:03:21.352Z,74.15
2017-04-02T04:04:27.533Z,78.60
2017-04-02T04:05:33.623Z,76.90
2017-04-02T04:06:40.420Z,75.55
2017-04-02T04:07:46.320Z,80.25
2017-04-02T04:08:52.389Z,74.93
2017-04-02T04:09:58.501Z,71.25
2017-04-02T04:11:04.487Z,68.23
2017-04-02T04:12:10.596Z,72.00
2017-04-02T04:13:16.596Z,72.72
2017-04-02T04:14:22.586Z,65.52
2017-04-02T04:15:28.752Z,69.43
2017-04-02T04:16:38.503Z,71.63
2017-04-02T04:17:44.556Z,68.25
2017-04-02T04:18:50.717Z,68.80
2017-04-02T04:19:56.652Z,73.05
2017-04-02T04:21:02.964Z,65.63
2017-04-02T04:22:08.943Z,62.95
2017-04-02T04:23:15.004Z,83.42
2017-04-02T04:24:21.019Z,67.97
2017-04-02T04:25:27.125Z,71.28
2017-04-02T04:26:33.539Z,82.62
2017-04-02T04:27:39.675Z,71.95
2017-04-02T04:28:45.660Z,65.00
2017-04-02T04:29:51.675Z,69.92
2017-04-02T04:30:57.801Z,69.37
2017-04-02T04:32:03.908Z,71.52
2017-04-02T04:33:09.736Z,61.15
2017-04-02T04:34:15.833Z,61.30
2017-04-02T04:35:21.951Z,60.60
2017-04-02T04:36:27.957Z,64.38
2017-04-02T04:37:34.246Z,59.25
2017-04-02T04:38:40.132Z,64.63
2017-04-02T04:39:46.192Z,67.07
2017-04-02T04:40:53.072Z,68.63
2017-04-02T04:41:58.904Z,56.75
2017-04-02T04:43:04.953Z,65.50
2017-04-02T04:44:11.023Z,56.47
2017-04-02T04:45:17.089Z,54.57
2017-04-02T04:46:23.251Z,55.72
2017-04-02T04:47:29.391Z,62.73
2017-04-02T04:48:35.395Z,58.12
2017-04-02T04:49:41.413Z,57.23
2017-04-02T04:50:47.442Z,47.07
2017-04-02T04:51:54.444Z,51.00
2017-04-02T04:53:00.477Z,54.20
2017-04-02T04:54:07.262Z,56.25
2017-04-02T04:55:14.124Z,63.87
2017-04-02T04:56:20.120Z,72.70
2017-04-02T04:57:26.018Z,60.93
2017-04-02T04:58:32.044Z,62.67
2017-04-02T04:59:38.015Z,67.87
2017-04-02T05:00:44.001Z,69.38
2017-04-02T05:01:50.080Z,68.12
2017-04-02T05:02:56.004Z,67.15
2017-04-02T05:04:02.102Z,64.05
2017-04-02T05:05:08.905Z,62.33
2017-04-02T05:06:15.516Z,69.37
2017-04-02T05:07:23.324Z,74.18
2017-04-02T05:08:30.348Z,102.47
2017-04-02T05:09:36.719Z,79.23
2017-04-02T05:10:44.633Z,71.85
2017-04-02T05:11:50.813Z,78.93
2017-04-02T05:12:56.772Z,79.10
2017-04-02T05:14:02.994Z,89.85
2017-04-02T05:15:09.268Z,85.72
2017-04-02T05:16:15.876Z,86.98
2017-04-02T05:17:21.975Z,71.92
2017-04-02T05:18:29.382Z,86.80
2017-04-02T05:19:35.478Z,83.75
2017-04-02T05:20:41.857Z,90.52
2017-04-02T05:21:47.764Z,78.43
2017-04-02T05:22:55.471Z,83.55
2017-04-02T05:24:01.752Z,85.08
2017-04-02T05:25:07.705Z,83.88
2017-04-02T05:26:14.822Z,89.03
2017-04-02T05:27:20.889Z,97.92
2017-04-02T05:28:27.297Z,93.10
2017-04-02T05:29:33.295Z,102.82
2017-04-02T05:30:39.236Z,104.68
2017-04-02T05:31:46.237Z,105.40
2017-04-02T05:32:52.325Z,95.68
2017-04-02T05:34:01.742Z,99.90
2017-04-02T05:35:08.313Z,113.43
2017-04-02T05:36:14.339Z,120.62
2017-04-02T05:37:20.344Z,118.20
2017-04-02T05:38:27.359Z,114.52
2017-04-02T05:39:34.296Z,136.70
2017-04-02T05:40:40.126Z,127.60
2017-04-02T05:41:46.244Z,114.28
2017-04-02T05:42:52.372Z,118.65
2017-04-02T05:43:58.886Z,134.10
2017-04-02T05:45:04.801Z,126.50
2017-04-02T05:46:11.700Z,121.18
2017-04-02T05:47:18.857Z,114.38
2017-04-02T05:48:26.253Z,137.82
2017-04-02T05:49:32.484Z,123.87
2017-04-02T05:50:38.324Z,147.77
2017-04-02T05:51:44.408Z,148.03
2017-04-02T05:52:50.224Z,144.22
2017-04-02T05:53:56.324Z,137.07
2017-04-02T05:55:02.440Z,117.03
2017-04-02T05:56:09.131Z,137.33
2017-04-02T05:57:15.188Z,135.37
2017-04-02T05:58:21.180Z,135.58
2017-04-02T05:59:27.244Z,156.02
2017-04-02T06:00:33.203Z,96.27
2017-04-02T06:01:41.186Z,134.90
2017-04-02T06:02:47.252Z,126.45
2017-04-02T06:03:53.204Z,141.82
2017-04-02T06:04:59.429Z,136.83
2017-04-02T06:06:05.846Z,160.33
2017-04-02T06:07:13.945Z,130.83
2017-04-02T06:08:20.173Z,124.77
2017-04-02T06:09:26.216Z,121.30
2017-04-02T06:10:32.347Z,115.53
2017-04-02T06:11:39.895Z,108.50
2017-04-02T06:12:46.418Z,103.23
2017-04-02T06:13:52.403Z,105.83
2017-04-02T06:15:00.137Z,85.97
2017-04-02T06:16:06.340Z,86.85
2017-04-02T06:17:12.340Z,84.50
2017-04-02T06:18:18.415Z,80.77
2017-04-02T06:19:24.321Z,75.53
2017-04-02T06:20:31.455Z,75.67
2017-04-02T06:21:37.930Z,67.60
2017-04-02T06:22:44.988Z,61.77
2017-04-02T06:23:51.374Z,62.32
2017-04-02T06:24:57.319Z,58.58
2017-04-02T06:26:04.436Z,51.40
2017-04-02T06:27:10.696Z,60.77
2017-04-02T06:28:16.636Z,59.88
2017-04-02T06:29:22.849Z,69.43
2017-04-02T06:30:28.858Z,66.38
2017-04-02T06:31:36.337Z,77.30
2017-04-02T06:32:42.508Z,57.35
2017-04-02T06:33:48.552Z,56.02
2017-04-02T06:34:54.688Z,59.55
2017-04-02T06:36:00.725Z,56.53
2017-04-02T06:37:06.646Z,65.23
2017-04-02T06:38:13.241Z,58.58
2017-04-02T06:39:19.144Z,49.70
2017-04-02T06:40:25.519Z,64.83
2017-04-02T06:41:31.712Z,54.20
2017-04-02T06:42:38.048Z,54.20
2017-04-02T06:45:23.791Z,47.75
2017-04-02T06:46:31.662Z,50.70
2017-04-02T06:47:37.660Z,48.20
2017-04-02T06:48:43.607Z,60.12
2017-04-02T06:49:49.753Z,61.52
2017-04-02T06:52:37.668Z,47.23
2017-04-02T06:55:18.309Z,34.55
2017-04-02T06:56:25.191Z,44.93
2017-04-02T06:57:31.348Z,40.68
2017-04-02T06:58:37.484Z,39.97
2017-04-02T06:59:43.473Z,40.68
2017-04-02T07:00:49.762Z,41.57
2017-04-02T07:01:56.387Z,42.17
2017-04-02T07:03:02.474Z,38.70
2017-04-02T07:04:14.886Z,38.42
2017-04-02T07:05:21.896Z,47.98
2017-04-02T07:06:28.245Z,41.77
2017-04-02T07:07:34.339Z,48.28
2017-04-02T07:08:40.432Z,37.27
2017-04-02T07:09:46.584Z,41.10
2017-04-02T07:10:52.552Z,42.67
2017-04-02T07:11:58.658Z,47.23
2017-04-02T07:13:04.794Z,38.67
2017-04-02T07:14:10.910Z,40.70
2017-04-02T07:15:17.143Z,34.40
2017-04-02T07:16:23.045Z,33.27
2017-04-02T07:17:29.087Z,41.20
2017-04-02T07:20:25.434Z,31.80
2017-04-02T07:21:31.388Z,34.95
2017-04-02T07:22:37.330Z,44.97
2017-04-02T07:25:23.947Z,40.28
2017-04-02T07:26:29.996Z,39.33
2017-04-02T07:27:36.083Z,37.38
2017-04-02T07:28:42.209Z,41.82
2017-04-02T07:29:48.233Z,43.60
2017-04-02T07:30:54.350Z,37.45
2017-04-02T07:32:00.643Z,41.43
2017-04-02T07:33:06.556Z,42.97
2017-04-02T07:34:12.409Z,38.90
2017-04-02T07:35:18.452Z,33.48
2017-04-02T07:36:24.408Z,46.62
2017-04-02T07:37:30.777Z,40.75
2017-04-02T07:38:36.724Z,35.82
2017-04-02T07:39:42.751Z,46.35
2017-04-02T07:40:48.823Z,42.15
2017-04-02T07:41:54.884Z,31.92
2017-04-02T07:43:01.605Z,40.83
2017-04-02T07:44:07.739Z,42.83
2017-04-02T07:45:13.788Z,38.73
2017-04-02T07:46:20.579Z,38.62
2017-04-02T07:47:26.437Z,37.72
2017-04-02T07:48:32.566Z,37.40
2017-04-02T07:49:39.480Z,38.78
2017-04-02T07:50:45.449Z,44.25
2017-04-02T07:51:51.620Z,36.03
2017-04-02T07:52:57.584Z,36.80
2017-04-02T07:54:03.844Z,36.13
2017-04-02T07:55:10.642Z,35.83
2017-04-02T07:56:16.751Z,32.23
2017-04-02T07:57:22.873Z,36.58
2017-04-02T07:58:29.142Z,31.07
2017-04-02T07:59:35.516Z,36.90
2017-04-02T08:00:41.591Z,33.50
2017-04-02T08:01:47.730Z,27.20
2017-04-02T08:02:53.852Z,26.00
2017-04-02T08:04:00.694Z,36.87
2017-04-02T08:05:06.976Z,30.32
2017-04-02T08:06:13.767Z,31.45
2017-04-02T08:07:20.893Z,32.67
2017-04-02T08:08:26.984Z,33.68
2017-04-02T08:09:33.001Z,24.47
2017-04-02T08:10:38.937Z,33.88
2017-04-02T08:11:45.064Z,28.33
2017-04-02T08:12:51.227Z,21.32
2017-04-02T08:13:57.259Z,25.23
2017-04-02T08:15:04.042Z,27.92
2017-04-02T08:16:10.273Z,28.03
2017-04-02T08:17:16.190Z,32.37
2017-04-02T08:18:22.237Z,19.43
2017-04-02T08:19:28.277Z,23.08
2017-04-02T08:20:35.011Z,25.80
2017-04-02T08:21:41.239Z,33.53
2017-04-02T08:22:47.164Z,24.12
2017-04-02T08:23:53.156Z,22.07
2017-04-02T08:24:59.137Z,23.62
2017-04-02T08:26:05.065Z,20.67
2017-04-02T08:27:11.259Z,24.10
2017-04-02T08:28:17.169Z,23.82
2017-04-02T08:29:23.248Z,24.32
2017-04-02T08:30:36.077Z,19.22
2017-04-02T08:31:41.982Z,23.87
2017-04-02T08:32:48.897Z,16.20
2017-04-02T08:33:54.896Z,16.75
2017-04-02T08:35:00.962Z,14.48
2017-04-02T08:36:06.899Z,20.38
2017-04-02T08:37:13.213Z,21.02
2017-04-02T08:38:19.493Z,17.35
2017-04-02T08:39:25.637Z,16.60
2017-04-02T08:40:35.383Z,18.05
2017-04-02T08:41:41.884Z,16.50
2017-04-02T08:42:47.991Z,19.63
2017-04-02T08:43:54.057Z,21.33
2017-04-02T08:45:00.503Z,16.12
2017-04-02T08:46:07.600Z,18.48
2017-04-02T08:47:13.664Z,15.80
2017-04-02T08:48:19.632Z,17.15
2017-04-02T08:49:27.844Z,14.60
2017-04-02T08:50:34.027Z,18.73
2017-04-02T08:51:40.073Z,13.08
2017-04-02T08:52:47.754Z,13.93
2017-04-02T08:53:55.399Z,18.35
2017-04-02T08:55:01.620Z,13.53
2017-04-02T08:56:07.572Z,16.12
2017-04-02T08:57:14.333Z,13.62
2017-04-02T08:58:20.404Z,16.83
2017-04-02T08:59:26.471Z,12.27
2017-04-02T09:00:33.015Z,15.25
2017-04-02T09:04:43.464Z,20.45
2017-04-02T09:05:50.337Z,13.17
2017-04-02T09:06:56.480Z,19.52
2017-04-02T09:08:03.273Z,13.97
2017-04-02T09:09:09.356Z,15.85
2017-04-02T09:10:15.413Z,11.70
2017-04-02T09:11:21.704Z,15.53
2017-04-02T09:12:27.946Z,13.53
2017-04-02T09:13:37.304Z,11.45
2017-04-02T09:14:43.401Z,14.20
2017-04-02T09:15:49.425Z,10.02
2017-04-02T09:16:55.643Z,7.73
2017-04-02T09:18:01.645Z,14.52
2017-04-02T09:19:07.991Z,13.30
2017-04-02T09:20:14.629Z,10.87
2017-04-02T09:21:20.682Z,11.70
2017-04-02T09:22:26.661Z,13.75
2017-04-02T09:23:32.864Z,10.63
2017-04-02T09:24:38.790Z,9.57
2017-04-02T09:25:44.885Z,9.97
2017-04-02T09:26:51.027Z,11.18
2017-04-02T09:27:57.064Z,14.20
2017-04-02T09:29:02.976Z,12.15
2017-04-02T09:30:09.074Z,14.37
2017-04-02T09:31:16.274Z,8.97
2017-04-02T09:32:22.332Z,7.53
2017-04-02T09:33:28.399Z,11.35
2017-04-02T09:34:34.387Z,12.90
2017-04-02T09:35:40.428Z,15.60
2017-04-02T09:36:46.351Z,14.00
2017-04-02T09:37:52.439Z,11.50
2017-04-02T09:38:58.772Z,13.07
2017-04-02T09:40:05.796Z,11.82
2017-04-02T09:41:11.837Z,12.42
2017-04-02T09:42:18.033Z,12.55
2017-04-02T09:43:24.368Z,13.90
2017-04-02T09:44:31.930Z,9.68
2017-04-02T09:45:38.703Z,12.45
2017-04-02T09:46:44.900Z,11.52
2017-04-02T09:47:50.931Z,13.93
2017-04-02T09:48:57.004Z,11.28
2017-04-02T09:50:03.374Z,11.28
2017-04-02T09:51:09.325Z,10.45
2017-04-02T09:52:15.486Z,12.92
2017-04-02T09:53:21.868Z,12.33
2017-04-02T09:54:27.911Z,8.95
2017-04-02T09:55:34.856Z,9.23
2017-04-02T09:56:40.736Z,12.82
2017-04-02T09:57:46.683Z,11.40
2017-04-02T09:58:52.660Z,9.05
2017-04-02T09:59:58.791Z,12.87
2017-04-02T10:01:04.887Z,9.05
2017-04-02T10:02:11.029Z,9.97
2017-04-02T10:03:17.707Z,12.63
2017-04-02T10:04:23.720Z,8.53
2017-04-02T10:05:30.065Z,11.48
2017-04-02T10:06:36.191Z,9.12
2017-04-02T10:07:42.276Z,15.52
2017-04-02T10:08:48.186Z,10.97
2017-04-02T10:09:54.108Z,11.53
2017-04-02T10:11:00.222Z,12.82
2017-04-02T10:12:06.283Z,8.67
2017-04-02T10:13:12.293Z,12.60
2017-04-02T10:14:18.353Z,14.78
2017-04-02T10:15:24.300Z,12.68
2017-04-02T10:16:30.280Z,14.27
2017-04-02T10:17:36.504Z,10.05
2017-04-02T10:18:42.677Z,8.25
2017-04-02T10:19:48.713Z,8.62
2017-04-02T10:20:54.839Z,9.98
2017-04-02T10:22:00.905Z,10.03
2017-04-02T10:23:07.048Z,15.12
2017-04-02T10:24:13.074Z,9.37
2017-04-02T10:25:19.212Z,10.52
2017-04-02T10:26:25.132Z,12.77
2017-04-02T10:27:32.195Z,11.03
2017-04-02T10:28:38.553Z,10.53
2017-04-02T10:29:44.808Z,12.20
2017-04-02T10:30:50.987Z,15.70
2017-04-02T10:31:56.888Z,14.77
2017-04-02T10:33:03.186Z,12.07
2017-04-02T10:34:10.138Z,14.13
2017-04-02T10:35:16.898Z,10.65
2017-04-02T10:36:22.864Z,10.90
2017-04-02T10:37:29.004Z,11.25
2017-04-02T10:38:35.115Z,12.70
2017-04-02T10:39:41.147Z,10.07
2017-04-02T10:40:47.808Z,13.10
2017-04-02T10:41:54.472Z,11.18
2017-04-02T10:43:01.363Z,13.80
2017-04-02T10:44:07.425Z,16.37
2017-04-02T10:45:13.557Z,9.57
2017-04-02T10:47:54.512Z,12.03
2017-04-02T10:49:00.597Z,9.93
2017-04-02T10:50:06.624Z,16.22
2017-04-02T10:51:12.736Z,8.68
2017-04-02T10:52:18.701Z,11.32
2017-04-02T10:53:25.242Z,10.02
2017-04-02T10:54:31.327Z,15.10
2017-04-02T10:55:37.396Z,13.38
2017-04-02T10:56:43.453Z,8.12
2017-04-02T10:57:49.573Z,11.55
2017-04-02T10:58:55.558Z,10.07
2017-04-02T11:00:01.541Z,10.43
2017-04-02T11:01:07.810Z,9.75
2017-04-02T11:02:14.168Z,15.18
2017-04-02T11:03:20.204Z,10.87
2017-04-02T11:04:26.224Z,13.68
2017-04-02T11:05:32.390Z,12.60
2017-04-02T11:06:38.386Z,13.78
2017-04-02T11:07:44.576Z,12.15
2017-04-02T11:08:50.533Z,11.28
2017-04-02T11:09:56.548Z,12.82
2017-04-02T11:11:03.201Z,11.22
2017-04-02T11:12:09.246Z,12.03
2017-04-02T11:13:15.320Z,11.53
2017-04-02T11:14:21.332Z,13.73
2017-04-02T11:15:27.305Z,11.72
2017-04-02T11:16:34.340Z,10.02
2017-04-02T11:17:40.437Z,11.05
2017-04-02T11:18:46.629Z,11.38
2017-04-02T11:19:52.585Z,13.85
2017-04-02T11:20:58.671Z,12.68
2017-04-02T11:22:04.725Z,12.70
2017-04-02T11:23:10.737Z,16.27
2017-04-02T11:24:16.838Z,15.55
2017-04-02T11:25:22.791Z,15.20
2017-04-02T11:26:28.949Z,14.32
2017-04-02T11:27:34.923Z,10.95
2017-04-02T11:28:40.905Z,11.65
2017-04-02T11:29:47.211Z,15.37
2017-04-02T11:30:53.188Z,13.93
2017-04-02T11:31:59.168Z,14.22
2017-04-02T11:33:05.163Z,9.62
2017-04-02T11:34:11.172Z,13.45
2017-04-02T11:35:17.374Z,12.77
2017-04-02T11:36:23.433Z,11.27
2017-04-02T11:37:29.470Z,16.43
2017-04-02T11:38:35.557Z,15.28
2017-04-02T11:39:41.586Z,12.22
2017-04-02T11:40:48.387Z,12.15
2017-04-02T11:41:54.332Z,13.97
2017-04-02T11:43:00.380Z,13.15
2017-04-02T11:44:06.324Z,10.00
2017-04-02T11:45:12.365Z,12.55
2017-04-02T11:46:18.393Z,13.83
2017-04-02T11:47:24.530Z,12.13
2017-04-02T11:48:31.656Z,11.53
2017-04-02T11:49:36.811Z,15.18
2017-04-02T11:50:42.887Z,12.88
2017-04-02T11:51:49.006Z,12.98
2017-04-02T11:52:54.996Z,14.73
2017-04-02T11:54:01.004Z,10.28
2017-04-02T11:55:07.174Z,12.32
2017-04-02T11:56:13.992Z,14.50
2017-04-02T11:57:20.333Z,18.12
2017-04-02T11:58:26.450Z,16.27
2017-04-02T11:59:32.527Z,13.87
2017-04-02T12:00:38.521Z,12.47
2017-04-02T12:01:44.524Z,15.73
2017-04-02T12:02:50.783Z,12.58
2017-04-02T12:03:56.709Z,10.93
2017-04-02T12:05:02.741Z,18.02
2017-04-02T12:06:08.895Z,10.13
2017-04-02T12:07:14.828Z,13.65
2017-04-02T12:08:21.124Z,15.72
2017-04-02T12:09:27.180Z,15.12
2017-04-02T12:10:33.207Z,15.18
2017-04-02T12:11:39.358Z,11.13
2017-04-02T12:12:45.284Z,15.62
2017-04-02T12:13:51.359Z,15.27
2017-04-02T12:14:57.252Z,11.37
2017-04-02T12:16:03.360Z,16.78
2017-04-02T12:17:09.331Z,14.90
2017-04-02T12:18:15.345Z,7.95
2017-04-02T12:19:21.436Z,7.37
2017-04-02T12:20:27.485Z,13.92
2017-04-02T12:21:33.400Z,12.35
2017-04-02T12:22:39.442Z,10.98
2017-04-02T12:23:45.288Z,17.35
2017-04-02T12:24:51.247Z,17.53
2017-04-02T12:25:57.429Z,11.52
2017-04-02T12:27:03.260Z,10.43
2017-04-02T12:28:09.251Z,10.80
2017-04-02T12:29:15.198Z,17.93
2017-04-02T12:30:22.024Z,14.18
2017-04-02T12:31:28.048Z,7.68
2017-04-02T12:32:34.089Z,8.80
2017-04-02T12:33:39.982Z,8.12
2017-04-02T12:34:46.119Z,15.73
2017-04-02T12:35:52.431Z,11.67
2017-04-02T12:36:59.167Z,6.33
2017-04-02T12:38:05.404Z,11.45
2017-04-02T12:39:11.437Z,11.15
2017-04-02T12:40:18.233Z,11.22
2017-04-02T12:41:24.268Z,10.17
2017-04-02T12:42:30.353Z,8.83
2017-04-02T12:43:36.423Z,10.23
2017-04-02T12:44:43.283Z,8.58
2017-04-02T12:45:49.263Z,13.67
2017-04-02T12:46:55.347Z,14.72
2017-04-02T12:48:01.320Z,10.88
2017-04-02T12:49:07.427Z,14.13
2017-04-02T12:50:14.153Z,14.52
2017-04-02T12:51:20.303Z,13.30
2017-04-02T12:52:26.521Z,16.30
2017-04-02T12:53:32.616Z,13.67
2017-04-02T12:54:38.708Z,10.93
2017-04-02T12:55:44.935Z,12.42
2017-04-02T12:56:50.907Z,10.12
2017-04-02T12:57:57.406Z,7.85
2017-04-02T12:59:03.460Z,7.73
2017-04-02T13:00:09.456Z,12.38
2017-04-02T13:01:15.625Z,15.62
2017-04-02T13:02:21.622Z,12.42
2017-04-02T13:03:27.840Z,12.72
2017-04-02T13:04:35.046Z,11.52
2017-04-02T13:05:42.854Z,12.40
2017-04-02T13:06:50.016Z,12.73
2017-04-02T13:07:56.076Z,12.50
2017-04-02T13:09:02.216Z,10.02
2017-04-02T13:10:08.156Z,9.15
2017-04-02T13:11:14.184Z,12.25
2017-04-02T13:12:20.286Z,14.12
2017-04-02T13:13:26.507Z,10.33
2017-04-02T13:14:33.380Z,12.75
2017-04-02T13:15:39.474Z,19.43
2017-04-02T13:16:45.378Z,10.12
2017-04-02T13:17:51.434Z,12.88
2017-04-02T13:18:57.428Z,15.48
2017-04-02T13:20:03.679Z,17.28
2017-04-02T13:21:09.683Z,5.98
2017-04-02T13:22:15.841Z,12.37
2017-04-02T13:23:21.918Z,12.87
2017-04-02T13:24:28.169Z,11.87
2017-04-02T13:25:34.552Z,14.40
2017-04-02T13:26:40.723Z,12.37
2017-04-02T13:27:46.850Z,13.68
2017-04-02T13:28:52.808Z,14.80
2017-04-02T13:29:58.991Z,9.37
2017-04-02T13:31:05.088Z,9.28
2017-04-02T13:32:11.000Z,7.95
2017-04-02T13:33:17.943Z,8.98
2017-04-02T13:34:24.134Z,6.98
2017-04-02T13:35:30.210Z,7.40
2017-04-02T13:36:36.565Z,14.27
2017-04-02T13:37:42.506Z,8.17
2017-04-02T13:38:49.460Z,7.47
2017-04-02T13:39:55.461Z,7.65
2017-04-02T13:41:01.342Z,8.03
2017-04-02T13:42:07.557Z,6.47
2017-04-02T13:43:13.702Z,8.18
2017-04-02T13:44:19.681Z,7.88
2017-04-02T13:45:26.373Z,12.80
2017-04-02T13:46:33.131Z,7.10
2017-04-02T13:47:39.085Z,10.43
2017-04-02T13:48:45.124Z,10.60
2017-04-02T13:49:51.248Z,5.73
2017-04-02T13:50:57.142Z,8.90
2017-04-02T13:52:03.106Z,7.32
2017-04-02T13:53:09.525Z,6.90
2017-04-02T13:54:15.557Z,7.42
2017-04-02T13:55:21.924Z,8.82
2017-04-02T13:56:27.968Z,4.75
2017-04-02T13:57:34.101Z,14.25
2017-04-02T13:58:40.439Z,11.97
2017-04-02T13:59:46.492Z,8.62
2017-04-02T14:00:52.572Z,16.45
2017-04-02T14:01:58.745Z,8.37
2017-04-02T14:03:04.981Z,10.50
2017-04-02T14:04:11.110Z,7.93
2017-04-02T14:05:17.154Z,7.65
2017-04-02T14:06:23.176Z,7.82
2017-04-02T14:07:29.413Z,8.22
2017-04-02T14:08:35.496Z,11.08
2017-04-02T14:09:41.432Z,10.87
2017-04-02T14:10:48.264Z,8.50
2017-04-02T14:11:55.228Z,8.78
2017-04-02T14:13:02.264Z,13.27
2017-04-02T14:14:08.524Z,10.55
2017-04-02T14:15:14.845Z,10.92
2017-04-02T14:16:21.144Z,11.18
2017-04-02T14:17:27.120Z,9.75
2017-04-02T14:18:33.191Z,13.78
2017-04-02T14:19:39.280Z,11.78
2017-04-02T14:20:46.240Z,11.20
2017-04-02T14:21:52.146Z,12.97
2017-04-02T14:22:58.133Z,11.58
2017-04-02T14:24:04.037Z,9.88
2017-04-02T14:25:10.101Z,11.58